sensor_id;sensor_type;location;lat;lon;timestamp;P1;durP1;ratioP1;P2;durP2;ratioP2
6723;SDS011;3399;52.530;13.304;2023-11-18T00:00:55;8.13;;;6.33;;
6723;SDS011;3399;52.530;13.304;2023-11-18T00:03:20;7.80;;;7.00;;
6723;SDS011;3399;52.530;13.304;2023-11-18T00:05:46;8.30;;;6.90;;
6723;SDS011;3399;52.530;13.304;2023-11-18T00:08:12;7.37;;;6.77;;
6723;SDS011;3399;52.530;13.304;2023-11-18T00:10:38;7.07;;;5.67;;
6723;SDS011;3399;52.530;13.304;2023-11-18T00:13:03;7.77;;;6.83;;
6723;SDS011;3399;52.530;13.304;2023-11-18T00:15:29;6.80;;;6.17;;
6723;SDS011;3399;52.530;13.304;2023-11-18T00:17:54;9.17;;;6.27;;
6723;SDS011;3399;52.530;13.304;2023-11-18T00:20:20;8.17;;;6.87;;
6723;SDS011;3399;52.530;13.304;2023-11-18T00:22:49;8.90;;;6.70;;
6723;SDS011;3399;52.530;13.304;2023-11-18T00:25:16;7.93;;;6.87;;
6723;SDS011;3399;52.530;13.304;2023-11-18T00:27:42;7.63;;;6.93;;
6723;SDS011;3399;52.530;13.304;2023-11-18T00:30:08;7.57;;;6.30;;
6723;SDS011;3399;52.530;13.304;2023-11-18T00:32:35;7.97;;;7.17;;
6723;SDS011;3399;52.530;13.304;2023-11-18T00:35:02;8.23;;;6.97;;
6723;SDS011;3399;52.530;13.304;2023-11-18T00:37:29;7.80;;;6.83;;
6723;SDS011;3399;52.530;13.304;2023-11-18T00:39:55;8.63;;;7.17;;
6723;SDS011;3399;52.530;13.304;2023-11-18T00:42:22;8.33;;;7.43;;
6723;SDS011;3399;52.530;13.304;2023-11-18T00:44:47;8.33;;;7.53;;
6723;SDS011;3399;52.530;13.304;2023-11-18T00:47:12;8.50;;;7.17;;
6723;SDS011;3399;52.530;13.304;2023-11-18T00:49:38;10.57;;;7.23;;
6723;SDS011;3399;52.530;13.304;2023-11-18T00:52:05;8.73;;;7.30;;
6723;SDS011;3399;52.530;13.304;2023-11-18T00:54:31;7.97;;;6.77;;
6723;SDS011;3399;52.530;13.304;2023-11-18T00:56:56;11.03;;;7.17;;
6723;SDS011;3399;52.530;13.304;2023-11-18T00:59:22;7.63;;;6.83;;
6723;SDS011;3399;52.530;13.304;2023-11-18T01:01:47;8.63;;;7.13;;
6723;SDS011;3399;52.530;13.304;2023-11-18T01:04:14;9.57;;;7.60;;
6723;SDS011;3399;52.530;13.304;2023-11-18T01:06:39;11.63;;;6.87;;
6723;SDS011;3399;52.530;13.304;2023-11-18T01:09:05;9.23;;;7.43;;
6723;SDS011;3399;52.530;13.304;2023-11-18T01:11:32;7.40;;;6.70;;
6723;SDS011;3399;52.530;13.304;2023-11-18T01:13:58;8.70;;;6.93;;
6723;SDS011;3399;52.530;13.304;2023-11-18T01:16:23;7.73;;;6.37;;
6723;SDS011;3399;52.530;13.304;2023-11-18T01:18:49;7.63;;;6.93;;
6723;SDS011;3399;52.530;13.304;2023-11-18T01:21:15;7.93;;;6.97;;
6723;SDS011;3399;52.530;13.304;2023-11-18T01:23:42;6.43;;;5.83;;
6723;SDS011;3399;52.530;13.304;2023-11-18T01:26:09;11.27;;;6.60;;
6723;SDS011;3399;52.530;13.304;2023-11-18T01:28:37;8.03;;;6.40;;
6723;SDS011;3399;52.530;13.304;2023-11-18T01:31:06;6.30;;;5.70;;
6723;SDS011;3399;52.530;13.304;2023-11-18T01:33:34;6.07;;;5.47;;
6723;SDS011;3399;52.530;13.304;2023-11-18T01:36:02;6.97;;;6.27;;
6723;SDS011;3399;52.530;13.304;2023-11-18T01:38:28;9.77;;;6.93;;
6723;SDS011;3399;52.530;13.304;2023-11-18T01:40:55;7.97;;;5.87;;
6723;SDS011;3399;52.530;13.304;2023-11-18T01:43:21;7.47;;;6.20;;
6723;SDS011;3399;52.530;13.304;2023-11-18T01:45:47;7.07;;;6.33;;
6723;SDS011;3399;52.530;13.304;2023-11-18T01:48:13;9.07;;;6.93;;
6723;SDS011;3399;52.530;13.304;2023-11-18T01:50:40;7.40;;;6.27;;
6723;SDS011;3399;52.530;13.304;2023-11-18T01:53:06;7.70;;;6.00;;
6723;SDS011;3399;52.530;13.304;2023-11-18T01:55:33;7.93;;;6.53;;
6723;SDS011;3399;52.530;13.304;2023-11-18T01:57:59;7.37;;;6.53;;
6723;SDS011;3399;52.530;13.304;2023-11-18T02:00:28;7.73;;;6.73;;
6723;SDS011;3399;52.530;13.304;2023-11-18T02:02:55;8.33;;;6.77;;
6723;SDS011;3399;52.530;13.304;2023-11-18T02:05:21;7.10;;;6.40;;
6723;SDS011;3399;52.530;13.304;2023-11-18T02:07:47;8.33;;;6.97;;
6723;SDS011;3399;52.530;13.304;2023-11-18T02:10:12;7.23;;;6.50;;
6723;SDS011;3399;52.530;13.304;2023-11-18T02:15:09;8.50;;;6.70;;
6723;SDS011;3399;52.530;13.304;2023-11-18T02:17:38;8.23;;;6.17;;
6723;SDS011;3399;52.530;13.304;2023-11-18T02:20:05;6.87;;;5.80;;
6723;SDS011;3399;52.530;13.304;2023-11-18T02:22:44;7.80;;;7.03;;
6723;SDS011;3399;52.530;13.304;2023-11-18T02:25:15;12.03;;;6.93;;
6723;SDS011;3399;52.530;13.304;2023-11-18T02:27:43;6.83;;;5.97;;
6723;SDS011;3399;52.530;13.304;2023-11-18T02:30:08;8.27;;;6.33;;
6723;SDS011;3399;52.530;13.304;2023-11-18T02:32:43;7.73;;;6.70;;
6723;SDS011;3399;52.530;13.304;2023-11-18T02:35:20;8.00;;;7.07;;
6723;SDS011;3399;52.530;13.304;2023-11-18T02:37:50;9.07;;;6.90;;
6723;SDS011;3399;52.530;13.304;2023-11-18T02:40:20;9.40;;;7.00;;
6723;SDS011;3399;52.530;13.304;2023-11-18T02:42:51;10.13;;;6.10;;
6723;SDS011;3399;52.530;13.304;2023-11-18T02:45:19;8.37;;;6.70;;
6723;SDS011;3399;52.530;13.304;2023-11-18T02:47:45;8.60;;;7.73;;
6723;SDS011;3399;52.530;13.304;2023-11-18T02:50:12;7.53;;;6.73;;
6723;SDS011;3399;52.530;13.304;2023-11-18T02:52:38;9.23;;;7.20;;
6723;SDS011;3399;52.530;13.304;2023-11-18T02:55:05;12.73;;;6.97;;
6723;SDS011;3399;52.530;13.304;2023-11-18T02:57:37;8.07;;;6.77;;
6723;SDS011;3399;52.530;13.304;2023-11-18T03:00:06;9.20;;;7.07;;
6723;SDS011;3399;52.530;13.304;2023-11-18T03:02:41;8.10;;;6.97;;
6723;SDS011;3399;52.530;13.304;2023-11-18T03:05:07;8.00;;;6.93;;
6723;SDS011;3399;52.530;13.304;2023-11-18T03:07:36;7.67;;;6.87;;
6723;SDS011;3399;52.530;13.304;2023-11-18T03:10:02;8.40;;;7.23;;
6723;SDS011;3399;52.530;13.304;2023-11-18T03:12:34;7.60;;;6.80;;
6723;SDS011;3399;52.530;13.304;2023-11-18T03:15:00;8.00;;;6.33;;
6723;SDS011;3399;52.530;13.304;2023-11-18T03:17:25;7.50;;;6.57;;
6723;SDS011;3399;52.530;13.304;2023-11-18T03:19:51;8.13;;;6.73;;
6723;SDS011;3399;52.530;13.304;2023-11-18T03:22:17;7.67;;;6.87;;
6723;SDS011;3399;52.530;13.304;2023-11-18T03:24:42;8.60;;;7.13;;
6723;SDS011;3399;52.530;13.304;2023-11-18T03:27:08;10.33;;;6.10;;
6723;SDS011;3399;52.530;13.304;2023-11-18T03:29:33;8.63;;;6.77;;
6723;SDS011;3399;52.530;13.304;2023-11-18T03:31:59;8.80;;;6.00;;
6723;SDS011;3399;52.530;13.304;2023-11-18T03:34:25;6.93;;;6.30;;
6723;SDS011;3399;52.530;13.304;2023-11-18T03:36:50;10.87;;;6.73;;
6723;SDS011;3399;52.530;13.304;2023-11-18T03:39:17;6.70;;;5.73;;
6723;SDS011;3399;52.530;13.304;2023-11-18T03:41:42;8.37;;;6.37;;
6723;SDS011;3399;52.530;13.304;2023-11-18T03:44:10;7.33;;;5.77;;
6723;SDS011;3399;52.530;13.304;2023-11-18T03:46:36;6.17;;;5.50;;
6723;SDS011;3399;52.530;13.304;2023-11-18T03:49:02;8.30;;;6.73;;
6723;SDS011;3399;52.530;13.304;2023-11-18T03:51:28;9.43;;;7.17;;
6723;SDS011;3399;52.530;13.304;2023-11-18T03:53:54;6.37;;;5.77;;
6723;SDS011;3399;52.530;13.304;2023-11-18T03:56:19;7.10;;;6.40;;
6723;SDS011;3399;52.530;13.304;2023-11-18T03:58:45;8.27;;;6.93;;
6723;SDS011;3399;52.530;13.304;2023-11-18T04:01:24;8.00;;;6.30;;
6723;SDS011;3399;52.530;13.304;2023-11-18T04:03:53;8.07;;;6.77;;
6723;SDS011;3399;52.530;13.304;2023-11-18T04:06:22;11.90;;;8.57;;
6723;SDS011;3399;52.530;13.304;2023-11-18T04:08:49;8.33;;;7.40;;
6723;SDS011;3399;52.530;13.304;2023-11-18T04:11:15;8.40;;;6.77;;
6723;SDS011;3399;52.530;13.304;2023-11-18T04:13:41;11.57;;;7.10;;
6723;SDS011;3399;52.530;13.304;2023-11-18T04:16:13;13.10;;;8.57;;
6723;SDS011;3399;52.530;13.304;2023-11-18T04:18:44;10.67;;;7.37;;
6723;SDS011;3399;52.530;13.304;2023-11-18T04:21:10;10.40;;;8.37;;
6723;SDS011;3399;52.530;13.304;2023-11-18T04:23:38;11.20;;;8.13;;
6723;SDS011;3399;52.530;13.304;2023-11-18T04:26:08;9.40;;;7.67;;
6723;SDS011;3399;52.530;13.304;2023-11-18T04:28:34;14.50;;;8.70;;
6723;SDS011;3399;52.530;13.304;2023-11-18T04:31:00;9.77;;;8.27;;
6723;SDS011;3399;52.530;13.304;2023-11-18T04:33:27;10.93;;;8.00;;
6723;SDS011;3399;52.530;13.304;2023-11-18T04:35:54;8.07;;;7.23;;
6723;SDS011;3399;52.530;13.304;2023-11-18T04:38:22;14.13;;;9.40;;
6723;SDS011;3399;52.530;13.304;2023-11-18T04:40:48;11.37;;;8.57;;
6723;SDS011;3399;52.530;13.304;2023-11-18T04:43:13;10.67;;;8.10;;
6723;SDS011;3399;52.530;13.304;2023-11-18T04:45:40;11.63;;;10.43;;
6723;SDS011;3399;52.530;13.304;2023-11-18T04:48:07;10.23;;;9.00;;
6723;SDS011;3399;52.530;13.304;2023-11-18T04:50:33;10.87;;;8.13;;
6723;SDS011;3399;52.530;13.304;2023-11-18T04:52:59;12.43;;;8.20;;
6723;SDS011;3399;52.530;13.304;2023-11-18T04:55:24;10.03;;;8.53;;
6723;SDS011;3399;52.530;13.304;2023-11-18T04:57:53;9.17;;;8.17;;
6723;SDS011;3399;52.530;13.304;2023-11-18T05:00:18;10.00;;;8.23;;
6723;SDS011;3399;52.530;13.304;2023-11-18T05:02:44;11.50;;;8.93;;
6723;SDS011;3399;52.530;13.304;2023-11-18T05:05:12;9.63;;;7.50;;
6723;SDS011;3399;52.530;13.304;2023-11-18T05:07:39;8.47;;;7.57;;
6723;SDS011;3399;52.530;13.304;2023-11-18T05:10:05;9.83;;;7.70;;
6723;SDS011;3399;52.530;13.304;2023-11-18T05:12:35;9.07;;;7.70;;
6723;SDS011;3399;52.530;13.304;2023-11-18T05:15:04;10.53;;;8.60;;
6723;SDS011;3399;52.530;13.304;2023-11-18T05:17:32;8.73;;;7.07;;
6723;SDS011;3399;52.530;13.304;2023-11-18T05:20:00;13.03;;;8.07;;
6723;SDS011;3399;52.530;13.304;2023-11-18T05:22:27;8.87;;;7.93;;
6723;SDS011;3399;52.530;13.304;2023-11-18T05:24:52;9.70;;;7.77;;
6723;SDS011;3399;52.530;13.304;2023-11-18T05:27:18;9.20;;;7.73;;
6723;SDS011;3399;52.530;13.304;2023-11-18T05:29:43;9.07;;;7.97;;
6723;SDS011;3399;52.530;13.304;2023-11-18T05:32:19;8.77;;;7.17;;
6723;SDS011;3399;52.530;13.304;2023-11-18T05:34:48;9.80;;;7.40;;
6723;SDS011;3399;52.530;13.304;2023-11-18T05:37:15;9.23;;;7.93;;
6723;SDS011;3399;52.530;13.304;2023-11-18T05:39:43;9.90;;;7.60;;
6723;SDS011;3399;52.530;13.304;2023-11-18T05:42:10;10.00;;;8.50;;
6723;SDS011;3399;52.530;13.304;2023-11-18T05:44:36;10.17;;;7.53;;
6723;SDS011;3399;52.530;13.304;2023-11-18T05:47:04;9.67;;;7.17;;
6723;SDS011;3399;52.530;13.304;2023-11-18T05:49:36;12.20;;;9.07;;
6723;SDS011;3399;52.530;13.304;2023-11-18T05:52:02;10.53;;;9.33;;
6723;SDS011;3399;52.530;13.304;2023-11-18T05:54:27;9.77;;;8.17;;
6723;SDS011;3399;52.530;13.304;2023-11-18T05:56:53;9.87;;;8.37;;
6723;SDS011;3399;52.530;13.304;2023-11-18T05:59:19;12.33;;;8.33;;
6723;SDS011;3399;52.530;13.304;2023-11-18T06:01:44;9.00;;;7.93;;
6723;SDS011;3399;52.530;13.304;2023-11-18T06:04:12;9.97;;;7.67;;
6723;SDS011;3399;52.530;13.304;2023-11-18T06:06:38;9.47;;;7.83;;
6723;SDS011;3399;52.530;13.304;2023-11-18T06:09:04;9.40;;;7.93;;
6723;SDS011;3399;52.530;13.304;2023-11-18T06:11:34;8.80;;;7.57;;
6723;SDS011;3399;52.530;13.304;2023-11-18T06:14:00;8.43;;;6.90;;
6723;SDS011;3399;52.530;13.304;2023-11-18T06:16:26;10.10;;;7.50;;
6723;SDS011;3399;52.530;13.304;2023-11-18T06:18:54;9.10;;;7.63;;
6723;SDS011;3399;52.530;13.304;2023-11-18T06:21:24;8.03;;;7.23;;
6723;SDS011;3399;52.530;13.304;2023-11-18T06:23:55;11.40;;;8.47;;
6723;SDS011;3399;52.530;13.304;2023-11-18T06:26:22;8.77;;;7.37;;
6723;SDS011;3399;52.530;13.304;2023-11-18T06:28:49;9.47;;;7.37;;
6723;SDS011;3399;52.530;13.304;2023-11-18T06:31:15;10.97;;;7.50;;
6723;SDS011;3399;52.530;13.304;2023-11-18T06:33:41;10.27;;;7.53;;
6723;SDS011;3399;52.530;13.304;2023-11-18T06:38:39;11.70;;;8.03;;
6723;SDS011;3399;52.530;13.304;2023-11-18T06:41:08;10.60;;;8.33;;
6723;SDS011;3399;52.530;13.304;2023-11-18T06:43:37;11.53;;;7.77;;
6723;SDS011;3399;52.530;13.304;2023-11-18T06:46:23;10.23;;;8.07;;
6723;SDS011;3399;52.530;13.304;2023-11-18T06:48:50;12.60;;;8.57;;
6723;SDS011;3399;52.530;13.304;2023-11-18T06:51:19;12.77;;;9.53;;
6723;SDS011;3399;52.530;13.304;2023-11-18T06:53:48;10.73;;;7.97;;
6723;SDS011;3399;52.530;13.304;2023-11-18T06:56:14;12.37;;;10.47;;
6723;SDS011;3399;52.530;13.304;2023-11-18T06:58:40;14.07;;;10.30;;
6723;SDS011;3399;52.530;13.304;2023-11-18T07:01:07;10.90;;;8.83;;
6723;SDS011;3399;52.530;13.304;2023-11-18T07:03:34;12.27;;;9.37;;
6723;SDS011;3399;52.530;13.304;2023-11-18T07:06:01;11.83;;;9.63;;
6723;SDS011;3399;52.530;13.304;2023-11-18T07:08:27;12.73;;;8.80;;
6723;SDS011;3399;52.530;13.304;2023-11-18T07:10:52;11.27;;;8.53;;
6723;SDS011;3399;52.530;13.304;2023-11-18T07:13:18;11.97;;;9.60;;
6723;SDS011;3399;52.530;13.304;2023-11-18T07:15:43;14.23;;;9.60;;
6723;SDS011;3399;52.530;13.304;2023-11-18T07:18:09;11.67;;;9.50;;
6723;SDS011;3399;52.530;13.304;2023-11-18T07:20:37;13.93;;;10.30;;
6723;SDS011;3399;52.530;13.304;2023-11-18T07:23:02;13.33;;;10.07;;
6723;SDS011;3399;52.530;13.304;2023-11-18T07:25:27;23.07;;;10.93;;
6723;SDS011;3399;52.530;13.304;2023-11-18T07:27:53;10.87;;;9.73;;
6723;SDS011;3399;52.530;13.304;2023-11-18T07:30:20;12.07;;;10.10;;
6723;SDS011;3399;52.530;13.304;2023-11-18T07:32:47;12.57;;;10.20;;
6723;SDS011;3399;52.530;13.304;2023-11-18T07:35:13;14.73;;;9.93;;
6723;SDS011;3399;52.530;13.304;2023-11-18T07:37:38;12.40;;;9.60;;
6723;SDS011;3399;52.530;13.304;2023-11-18T07:40:04;13.00;;;9.17;;
6723;SDS011;3399;52.530;13.304;2023-11-18T07:42:31;12.57;;;9.70;;
6723;SDS011;3399;52.530;13.304;2023-11-18T07:44:59;11.30;;;8.17;;
6723;SDS011;3399;52.530;13.304;2023-11-18T07:47:28;11.87;;;10.10;;
6723;SDS011;3399;52.530;13.304;2023-11-18T07:49:56;12.57;;;9.27;;
6723;SDS011;3399;52.530;13.304;2023-11-18T07:52:22;13.50;;;10.13;;
6723;SDS011;3399;52.530;13.304;2023-11-18T07:54:48;13.77;;;10.67;;
6723;SDS011;3399;52.530;13.304;2023-11-18T07:57:14;11.50;;;8.57;;
6723;SDS011;3399;52.530;13.304;2023-11-18T07:59:40;13.33;;;9.47;;
6723;SDS011;3399;52.530;13.304;2023-11-18T08:02:05;13.17;;;9.43;;
6723;SDS011;3399;52.530;13.304;2023-11-18T08:04:34;14.40;;;9.30;;
6723;SDS011;3399;52.530;13.304;2023-11-18T08:07:00;10.63;;;9.20;;
6723;SDS011;3399;52.530;13.304;2023-11-18T08:09:25;10.73;;;8.43;;
6723;SDS011;3399;52.530;13.304;2023-11-18T08:11:51;12.17;;;9.50;;
6723;SDS011;3399;52.530;13.304;2023-11-18T08:14:18;11.13;;;9.13;;
6723;SDS011;3399;52.530;13.304;2023-11-18T08:16:43;14.60;;;9.10;;
6723;SDS011;3399;52.530;13.304;2023-11-18T08:19:09;11.97;;;8.23;;
6723;SDS011;3399;52.530;13.304;2023-11-18T08:21:34;9.73;;;7.93;;
6723;SDS011;3399;52.530;13.304;2023-11-18T08:24:03;11.30;;;8.03;;
6723;SDS011;3399;52.530;13.304;2023-11-18T08:26:30;10.10;;;8.00;;
6723;SDS011;3399;52.530;13.304;2023-11-18T08:28:55;11.03;;;8.67;;
6723;SDS011;3399;52.530;13.304;2023-11-18T08:31:21;10.90;;;8.00;;
6723;SDS011;3399;52.530;13.304;2023-11-18T08:33:47;9.53;;;7.73;;
6723;SDS011;3399;52.530;13.304;2023-11-18T08:36:12;13.03;;;8.97;;
6723;SDS011;3399;52.530;13.304;2023-11-18T08:38:38;10.27;;;8.67;;
6723;SDS011;3399;52.530;13.304;2023-11-18T08:41:05;10.80;;;7.43;;
6723;SDS011;3399;52.530;13.304;2023-11-18T08:43:33;9.77;;;7.97;;
6723;SDS011;3399;52.530;13.304;2023-11-18T08:46:00;11.27;;;7.67;;
6723;SDS011;3399;52.530;13.304;2023-11-18T08:48:26;10.87;;;8.63;;
6723;SDS011;3399;52.530;13.304;2023-11-18T08:50:53;9.17;;;7.13;;
6723;SDS011;3399;52.530;13.304;2023-11-18T08:53:18;11.93;;;7.73;;
6723;SDS011;3399;52.530;13.304;2023-11-18T08:55:50;9.30;;;7.83;;
6723;SDS011;3399;52.530;13.304;2023-11-18T08:58:18;9.00;;;7.57;;
6723;SDS011;3399;52.530;13.304;2023-11-18T09:00:55;10.93;;;7.97;;
6723;SDS011;3399;52.530;13.304;2023-11-18T09:03:30;8.57;;;7.30;;
6723;SDS011;3399;52.530;13.304;2023-11-18T09:06:00;10.77;;;7.23;;
6723;SDS011;3399;52.530;13.304;2023-11-18T09:08:36;9.93;;;7.17;;
6723;SDS011;3399;52.530;13.304;2023-11-18T09:11:09;9.20;;;8.13;;
6723;SDS011;3399;52.530;13.304;2023-11-18T09:13:40;9.03;;;7.10;;
6723;SDS011;3399;52.530;13.304;2023-11-18T09:16:25;9.37;;;6.77;;
6723;SDS011;3399;52.530;13.304;2023-11-18T09:18:54;8.03;;;6.97;;
6723;SDS011;3399;52.530;13.304;2023-11-18T09:21:21;10.97;;;7.70;;
6723;SDS011;3399;52.530;13.304;2023-11-18T09:23:52;7.17;;;5.87;;
6723;SDS011;3399;52.530;13.304;2023-11-18T09:26:18;6.63;;;5.90;;
6723;SDS011;3399;52.530;13.304;2023-11-18T09:28:43;7.90;;;6.83;;
6723;SDS011;3399;52.530;13.304;2023-11-18T09:31:10;6.70;;;5.80;;
6723;SDS011;3399;52.530;13.304;2023-11-18T09:33:40;9.30;;;6.50;;
6723;SDS011;3399;52.530;13.304;2023-11-18T09:36:11;10.47;;;7.10;;
6723;SDS011;3399;52.530;13.304;2023-11-18T09:38:38;12.00;;;8.60;;
6723;SDS011;3399;52.530;13.304;2023-11-18T09:41:08;6.40;;;5.73;;
6723;SDS011;3399;52.530;13.304;2023-11-18T09:43:38;6.43;;;5.80;;
6723;SDS011;3399;52.530;13.304;2023-11-18T09:46:12;11.33;;;6.83;;
6723;SDS011;3399;52.530;13.304;2023-11-18T09:48:49;7.07;;;6.37;;
6723;SDS011;3399;52.530;13.304;2023-11-18T09:51:25;9.63;;;8.27;;
6723;SDS011;3399;52.530;13.304;2023-11-18T09:53:55;10.03;;;7.07;;
6723;SDS011;3399;52.530;13.304;2023-11-18T10:01:44;8.50;;;7.27;;
6723;SDS011;3399;52.530;13.304;2023-11-18T10:04:13;10.00;;;8.50;;
6723;SDS011;3399;52.530;13.304;2023-11-18T10:06:42;11.03;;;7.80;;
6723;SDS011;3399;52.530;13.304;2023-11-18T10:09:11;9.40;;;7.97;;
6723;SDS011;3399;52.530;13.304;2023-11-18T10:11:41;9.40;;;7.40;;
6723;SDS011;3399;52.530;13.304;2023-11-18T10:14:07;11.23;;;7.57;;
6723;SDS011;3399;52.530;13.304;2023-11-18T10:16:33;10.67;;;7.80;;
6723;SDS011;3399;52.530;13.304;2023-11-18T10:18:59;11.73;;;8.47;;
6723;SDS011;3399;52.530;13.304;2023-11-18T10:21:34;9.47;;;8.23;;
6723;SDS011;3399;52.530;13.304;2023-11-18T10:24:04;8.67;;;7.70;;
6723;SDS011;3399;52.530;13.304;2023-11-18T10:26:35;10.00;;;7.67;;
6723;SDS011;3399;52.530;13.304;2023-11-18T10:29:03;8.70;;;7.20;;
6723;SDS011;3399;52.530;13.304;2023-11-18T10:31:33;15.30;;;6.60;;
6723;SDS011;3399;52.530;13.304;2023-11-18T10:34:03;11.47;;;8.20;;
6723;SDS011;3399;52.530;13.304;2023-11-18T10:36:29;8.63;;;7.73;;
6723;SDS011;3399;52.530;13.304;2023-11-18T10:38:58;13.80;;;9.63;;
6723;SDS011;3399;52.530;13.304;2023-11-18T10:41:26;13.80;;;8.57;;
6723;SDS011;3399;52.530;13.304;2023-11-18T10:44:07;10.23;;;7.73;;
6723;SDS011;3399;52.530;13.304;2023-11-18T10:46:38;12.37;;;9.10;;
6723;SDS011;3399;52.530;13.304;2023-11-18T10:49:06;9.00;;;7.97;;
6723;SDS011;3399;52.530;13.304;2023-11-18T10:51:35;10.07;;;7.23;;
6723;SDS011;3399;52.530;13.304;2023-11-18T10:54:04;10.80;;;6.33;;
6723;SDS011;3399;52.530;13.304;2023-11-18T10:56:40;10.93;;;8.37;;
6723;SDS011;3399;52.530;13.304;2023-11-18T10:59:12;12.00;;;8.80;;
6723;SDS011;3399;52.530;13.304;2023-11-18T11:01:44;10.77;;;8.67;;
6723;SDS011;3399;52.530;13.304;2023-11-18T11:04:13;13.13;;;9.53;;
6723;SDS011;3399;52.530;13.304;2023-11-18T11:06:45;11.37;;;8.13;;
6723;SDS011;3399;52.530;13.304;2023-11-18T11:09:21;12.10;;;9.27;;
6723;SDS011;3399;52.530;13.304;2023-11-18T11:11:53;9.43;;;8.43;;
6723;SDS011;3399;52.530;13.304;2023-11-18T11:14:31;8.80;;;7.67;;
6723;SDS011;3399;52.530;13.304;2023-11-18T11:17:06;8.67;;;7.50;;
6723;SDS011;3399;52.530;13.304;2023-11-18T11:19:46;10.77;;;7.97;;
6723;SDS011;3399;52.530;13.304;2023-11-18T11:22:22;9.50;;;7.30;;
6723;SDS011;3399;52.530;13.304;2023-11-18T11:24:54;8.70;;;6.87;;
6723;SDS011;3399;52.530;13.304;2023-11-18T11:27:47;10.83;;;8.30;;
6723;SDS011;3399;52.530;13.304;2023-11-18T11:30:29;9.93;;;7.93;;
6723;SDS011;3399;52.530;13.304;2023-11-18T11:35:33;9.67;;;7.27;;
6723;SDS011;3399;52.530;13.304;2023-11-18T11:38:05;6.33;;;5.73;;
6723;SDS011;3399;52.530;13.304;2023-11-18T11:40:37;6.93;;;6.17;;
6723;SDS011;3399;52.530;13.304;2023-11-18T11:43:04;7.33;;;5.97;;
6723;SDS011;3399;52.530;13.304;2023-11-18T11:45:34;8.40;;;5.30;;
6723;SDS011;3399;52.530;13.304;2023-11-18T11:48:01;6.60;;;5.90;;
6723;SDS011;3399;52.530;13.304;2023-11-18T11:53:21;6.10;;;5.30;;
6723;SDS011;3399;52.530;13.304;2023-11-18T11:55:52;5.93;;;5.10;;
6723;SDS011;3399;52.530;13.304;2023-11-18T11:58:28;6.37;;;4.93;;
6723;SDS011;3399;52.530;13.304;2023-11-18T12:00:56;5.80;;;5.13;;
6723;SDS011;3399;52.530;13.304;2023-11-18T12:03:26;6.63;;;5.00;;
6723;SDS011;3399;52.530;13.304;2023-11-18T12:05:54;6.17;;;5.10;;
6723;SDS011;3399;52.530;13.304;2023-11-18T12:08:22;7.07;;;5.20;;
6723;SDS011;3399;52.530;13.304;2023-11-18T12:10:51;6.50;;;5.60;;
6723;SDS011;3399;52.530;13.304;2023-11-18T12:13:18;6.50;;;5.53;;
6723;SDS011;3399;52.530;13.304;2023-11-18T12:15:48;8.23;;;7.03;;
6723;SDS011;3399;52.530;13.304;2023-11-18T12:18:28;8.33;;;5.87;;
6723;SDS011;3399;52.530;13.304;2023-11-18T12:20:56;5.87;;;5.20;;
6723;SDS011;3399;52.530;13.304;2023-11-18T12:23:27;6.10;;;5.17;;
6723;SDS011;3399;52.530;13.304;2023-11-18T12:25:55;7.30;;;5.20;;
6723;SDS011;3399;52.530;13.304;2023-11-18T12:28:26;6.03;;;5.13;;
6723;SDS011;3399;52.530;13.304;2023-11-18T12:30:55;8.23;;;6.43;;
6723;SDS011;3399;52.530;13.304;2023-11-18T12:33:25;9.77;;;6.37;;
6723;SDS011;3399;52.530;13.304;2023-11-18T12:39:02;10.37;;;6.83;;
6723;SDS011;3399;52.530;13.304;2023-11-18T12:42:06;6.90;;;5.43;;
6723;SDS011;3399;52.530;13.304;2023-11-18T12:47:39;7.87;;;5.80;;
6723;SDS011;3399;52.530;13.304;2023-11-18T12:50:09;10.23;;;6.30;;
6723;SDS011;3399;52.530;13.304;2023-11-18T12:52:48;6.33;;;5.73;;
6723;SDS011;3399;52.530;13.304;2023-11-18T12:55:14;6.53;;;5.43;;
6723;SDS011;3399;52.530;13.304;2023-11-18T12:57:47;7.73;;;5.60;;
6723;SDS011;3399;52.530;13.304;2023-11-18T13:00:13;9.00;;;5.67;;
6723;SDS011;3399;52.530;13.304;2023-11-18T13:02:51;8.63;;;5.30;;
6723;SDS011;3399;52.530;13.304;2023-11-18T13:05:18;7.20;;;5.83;;
6723;SDS011;3399;52.530;13.304;2023-11-18T13:07:44;7.53;;;6.00;;
6723;SDS011;3399;52.530;13.304;2023-11-18T13:10:10;6.53;;;5.53;;
6723;SDS011;3399;52.530;13.304;2023-11-18T13:12:40;8.27;;;5.60;;
6723;SDS011;3399;52.530;13.304;2023-11-18T13:15:07;8.37;;;4.97;;
6723;SDS011;3399;52.530;13.304;2023-11-18T13:17:34;6.10;;;5.03;;
6723;SDS011;3399;52.530;13.304;2023-11-18T13:20:11;5.17;;;4.53;;
6723;SDS011;3399;52.530;13.304;2023-11-18T13:22:38;5.07;;;4.40;;
6723;SDS011;3399;52.530;13.304;2023-11-18T13:25:05;4.57;;;4.00;;
6723;SDS011;3399;52.530;13.304;2023-11-18T13:27:31;5.57;;;4.60;;
6723;SDS011;3399;52.530;13.304;2023-11-18T13:29:59;5.10;;;4.60;;
6723;SDS011;3399;52.530;13.304;2023-11-18T13:32:25;5.70;;;4.97;;
6723;SDS011;3399;52.530;13.304;2023-11-18T13:34:51;5.90;;;5.10;;
6723;SDS011;3399;52.530;13.304;2023-11-18T13:37:17;5.73;;;5.00;;
6723;SDS011;3399;52.530;13.304;2023-11-18T13:39:53;6.00;;;3.93;;
6723;SDS011;3399;52.530;13.304;2023-11-18T13:42:22;7.43;;;4.40;;
6723;SDS011;3399;52.530;13.304;2023-11-18T13:44:49;5.53;;;4.10;;
6723;SDS011;3399;52.530;13.304;2023-11-18T13:47:18;6.70;;;5.07;;
6723;SDS011;3399;52.530;13.304;2023-11-18T13:49:45;5.70;;;5.13;;
6723;SDS011;3399;52.530;13.304;2023-11-18T13:52:15;6.77;;;5.70;;
6723;SDS011;3399;52.530;13.304;2023-11-18T13:54:41;5.90;;;4.87;;
6723;SDS011;3399;52.530;13.304;2023-11-18T13:57:10;6.97;;;5.90;;
6723;SDS011;3399;52.530;13.304;2023-11-18T13:59:37;5.77;;;4.87;;
6723;SDS011;3399;52.530;13.304;2023-11-18T14:02:03;7.80;;;5.43;;
6723;SDS011;3399;52.530;13.304;2023-11-18T14:04:30;7.70;;;5.70;;
6723;SDS011;3399;52.530;13.304;2023-11-18T14:07:01;8.33;;;5.50;;
6723;SDS011;3399;52.530;13.304;2023-11-18T14:09:31;8.80;;;6.60;;
6723;SDS011;3399;52.530;13.304;2023-11-18T14:12:01;6.80;;;5.37;;
6723;SDS011;3399;52.530;13.304;2023-11-18T14:14:28;9.67;;;6.83;;
6723;SDS011;3399;52.530;13.304;2023-11-18T14:16:54;7.70;;;6.37;;
6723;SDS011;3399;52.530;13.304;2023-11-18T14:19:24;7.97;;;5.57;;
6723;SDS011;3399;52.530;13.304;2023-11-18T14:21:51;7.00;;;5.47;;
6723;SDS011;3399;52.530;13.304;2023-11-18T14:24:17;9.17;;;6.90;;
6723;SDS011;3399;52.530;13.304;2023-11-18T14:26:43;7.43;;;5.80;;
6723;SDS011;3399;52.530;13.304;2023-11-18T14:29:09;12.20;;;7.73;;
6723;SDS011;3399;52.530;13.304;2023-11-18T14:31:36;10.13;;;7.47;;
6723;SDS011;3399;52.530;13.304;2023-11-18T14:34:02;9.37;;;7.53;;
6723;SDS011;3399;52.530;13.304;2023-11-18T14:36:29;10.47;;;8.53;;
6723;SDS011;3399;52.530;13.304;2023-11-18T14:38:55;10.77;;;7.67;;
6723;SDS011;3399;52.530;13.304;2023-11-18T14:41:20;10.60;;;8.13;;
6723;SDS011;3399;52.530;13.304;2023-11-18T14:43:51;8.23;;;7.20;;
6723;SDS011;3399;52.530;13.304;2023-11-18T14:46:17;11.57;;;8.30;;
6723;SDS011;3399;52.530;13.304;2023-11-18T14:48:43;9.07;;;7.50;;
6723;SDS011;3399;52.530;13.304;2023-11-18T14:51:10;10.70;;;7.17;;
6723;SDS011;3399;52.530;13.304;2023-11-18T14:53:35;11.03;;;7.20;;
6723;SDS011;3399;52.530;13.304;2023-11-18T14:56:02;9.50;;;7.47;;
6723;SDS011;3399;52.530;13.304;2023-11-18T14:58:30;10.00;;;7.60;;
6723;SDS011;3399;52.530;13.304;2023-11-18T15:00:57;10.50;;;8.27;;
6723;SDS011;3399;52.530;13.304;2023-11-18T15:03:24;8.30;;;6.63;;
6723;SDS011;3399;52.530;13.304;2023-11-18T15:05:50;10.83;;;7.30;;
6723;SDS011;3399;52.530;13.304;2023-11-18T15:08:15;11.57;;;8.20;;
6723;SDS011;3399;52.530;13.304;2023-11-18T15:10:41;8.90;;;7.30;;
6723;SDS011;3399;52.530;13.304;2023-11-18T15:13:07;11.07;;;7.80;;
6723;SDS011;3399;52.530;13.304;2023-11-18T15:15:37;11.97;;;8.53;;
6723;SDS011;3399;52.530;13.304;2023-11-18T15:18:04;11.10;;;7.63;;
6723;SDS011;3399;52.530;13.304;2023-11-18T15:20:33;10.13;;;7.73;;
6723;SDS011;3399;52.530;13.304;2023-11-18T15:23:00;13.13;;;7.83;;